createdAt,value
2023-05-05T00:01:24.672Z,54.30
2023-05-05T00:02:56.594Z,54.40
2023-05-05T00:04:28.596Z,54.40
2023-05-05T00:06:00.541Z,54.50
2023-05-05T00:07:32.394Z,54.50
2023-05-05T00:09:04.347Z,54.50
2023-05-05T00:10:36.603Z,54.50
2023-05-05T00:12:08.562Z,54.50
2023-05-05T00:13:40.516Z,54.70
2023-05-05T00:15:12.476Z,54.60
2023-05-05T00:16:44.347Z,54.60
2023-05-05T00:18:17.602Z,54.60
2023-05-05T00:19:49.574Z,54.70
2023-05-05T00:21:21.415Z,54.70
2023-05-05T00:22:53.269Z,54.70
2023-05-05T00:24:31.039Z,54.80
2023-05-05T00:26:02.846Z,54.80
2023-05-05T00:27:34.765Z,54.90
2023-05-05T00:29:09.500Z,54.90
2023-05-05T00:30:41.454Z,54.90
2023-05-05T00:32:14.929Z,54.90
2023-05-05T00:33:48.009Z,54.90
2023-05-05T00:35:20.378Z,55.00
2023-05-05T00:36:53.256Z,55.00
2023-05-05T00:38:25.314Z,55.00
2023-05-05T00:39:57.269Z,55.10
2023-05-05T00:41:29.220Z,55.20
2023-05-05T00:43:01.175Z,55.20
2023-05-05T00:44:41.424Z,55.10
2023-05-05T00:46:28.028Z,55.20
2023-05-05T00:48:01.320Z,55.10
2023-05-05T00:49:34.617Z,55.30
2023-05-05T00:51:09.321Z,55.40
2023-05-05T00:52:44.655Z,55.50
2023-05-05T00:54:17.023Z,55.60
2023-05-05T00:55:49.486Z,55.60
2023-05-05T00:57:27.296Z,55.50
2023-05-05T00:58:59.362Z,55.70
2023-05-05T01:00:31.488Z,55.70
2023-05-05T01:02:12.868Z,55.90
2023-05-05T01:03:45.764Z,56.10
2023-05-05T01:05:18.654Z,56.00
2023-05-05T01:07:10.748Z,56.10
2023-05-05T01:08:49.881Z,56.00
2023-05-05T01:10:33.909Z,56.20
2023-05-05T01:12:30.828Z,56.00
2023-05-05T01:14:20.415Z,55.80
2023-05-05T01:16:14.768Z,56.20
2023-05-05T01:18:09.774Z,56.00
2023-05-05T01:20:04.314Z,56.20
2023-05-05T01:21:43.085Z,56.60
2023-05-05T01:23:29.003Z,56.50
2023-05-05T01:25:33.694Z,56.40
2023-05-05T01:27:30.541Z,56.70
2023-05-05T01:29:30.153Z,56.80
2023-05-05T01:31:05.667Z,56.90
2023-05-05T01:32:48.584Z,57.10
2023-05-05T01:34:34.483Z,57.10
2023-05-05T01:36:13.268Z,57.00
2023-05-05T01:37:59.102Z,57.10
2023-05-05T01:39:34.808Z,57.20
2023-05-05T01:41:21.850Z,57.30
2023-05-05T01:42:56.054Z,57.60
2023-05-05T01:44:28.828Z,57.60
2023-05-05T01:46:03.018Z,58.10
2023-05-05T01:47:37.369Z,57.90
2023-05-05T01:49:11.464Z,58.00
2023-05-05T01:50:46.580Z,58.10
2023-05-05T01:52:18.945Z,57.90
2023-05-05T01:53:53.330Z,58.00
2023-05-05T01:55:27.750Z,58.00
2023-05-05T01:57:00.334Z,58.50
2023-05-05T01:58:33.532Z,58.30
2023-05-05T02:00:07.355Z,58.20
2023-05-05T02:01:48.523Z,58.20
2023-05-05T02:03:22.680Z,58.10
2023-05-05T02:04:56.267Z,58.40
2023-05-05T02:06:29.582Z,58.40
2023-05-05T02:08:03.993Z,59.00
2023-05-05T02:09:36.966Z,58.50
2023-05-05T02:11:11.124Z,58.50
2023-05-05T02:12:44.655Z,58.60
2023-05-05T02:14:18.928Z,58.60
2023-05-05T02:15:51.910Z,58.90
2023-05-05T02:17:24.969Z,58.80
2023-05-05T02:18:58.633Z,58.90
2023-05-05T02:20:31.699Z,59.20
2023-05-05T02:22:03.415Z,59.40
2023-05-05T02:23:36.243Z,59.60
2023-05-05T02:25:08.985Z,59.40
2023-05-05T02:26:42.097Z,59.10
2023-05-05T02:28:19.985Z,59.40
2023-05-05T02:29:58.839Z,59.10
2023-05-05T02:31:33.384Z,59.70
2023-05-05T02:33:11.202Z,59.20
2023-05-05T02:34:46.045Z,59.40
2023-05-05T02:36:22.628Z,59.10
2023-05-05T02:38:04.715Z,59.20
2023-05-05T02:39:47.081Z,59.30
2023-05-05T02:41:25.176Z,59.10
2023-05-05T02:43:00.877Z,59.10
2023-05-05T02:44:38.516Z,59.10
2023-05-05T02:46:11.126Z,59.10
2023-05-05T02:47:44.544Z,59.10
2023-05-05T02:49:16.257Z,59.10
2023-05-05T02:50:48.381Z,59.00
2023-05-05T02:52:30.400Z,59.20
2023-05-05T02:54:02.602Z,59.20
2023-05-05T02:55:55.784Z,59.20
2023-05-05T02:57:41.476Z,58.80
2023-05-05T02:59:21.748Z,59.30
2023-05-05T03:01:37.773Z,59.30
2023-05-05T03:03:22.753Z,58.70
2023-05-05T03:05:28.237Z,59.20
2023-05-05T03:07:06.697Z,59.10
2023-05-05T03:08:48.087Z,59.50
2023-05-05T03:10:21.890Z,59.70
2023-05-05T03:12:08.743Z,59.60
2023-05-05T03:14:05.432Z,59.70
2023-05-05T03:15:43.085Z,59.70
2023-05-05T03:17:17.302Z,59.60
2023-05-05T03:18:52.373Z,59.70
2023-05-05T03:20:25.775Z,59.70
2023-05-05T03:21:59.164Z,59.80
2023-05-05T03:23:32.510Z,59.80
2023-05-05T03:25:06.046Z,59.80
2023-05-05T03:26:37.683Z,59.70
2023-05-05T03:28:09.462Z,59.80
2023-05-05T03:29:41.157Z,59.80
2023-05-05T03:31:18.418Z,59.80
2023-05-05T03:32:54.414Z,60.00
2023-05-05T03:34:26.180Z,59.90
2023-05-05T03:35:57.956Z,60.00
2023-05-05T03:37:29.709Z,60.10
2023-05-05T03:39:02.394Z,60.00
2023-05-05T03:40:44.228Z,60.00
2023-05-05T03:42:19.067Z,60.20
2023-05-05T03:43:51.388Z,60.10
2023-05-05T03:45:23.287Z,60.10
2023-05-05T03:46:55.346Z,60.10
2023-05-05T03:48:27.331Z,60.30
2023-05-05T03:50:00.602Z,60.30
2023-05-05T03:51:32.509Z,60.30
2023-05-05T03:53:04.813Z,60.50
2023-05-05T03:54:36.774Z,60.50
2023-05-05T03:56:08.502Z,60.40
2023-05-05T03:57:40.154Z,60.50
2023-05-05T03:59:11.899Z,60.50
2023-05-05T04:00:44.298Z,60.60
2023-05-05T04:02:18.386Z,60.60
2023-05-05T04:03:50.410Z,60.70
2023-05-05T04:05:22.924Z,60.70
2023-05-05T04:06:54.795Z,60.70
2023-05-05T04:08:26.774Z,60.80
2023-05-05T04:09:58.442Z,60.80
2023-05-05T04:11:30.209Z,60.80
2023-05-05T04:13:02.428Z,60.90
2023-05-05T04:14:35.732Z,61.00
2023-05-05T04:16:08.815Z,61.00
2023-05-05T04:17:41.813Z,61.00
2023-05-05T04:19:13.734Z,61.10
2023-05-05T04:20:46.683Z,61.10
2023-05-05T04:22:18.595Z,61.20
2023-05-05T04:23:50.461Z,61.00
2023-05-05T04:25:22.352Z,61.30
2023-05-05T04:26:54.928Z,61.30
2023-05-05T04:28:26.800Z,61.40
2023-05-05T04:29:58.515Z,61.30
2023-05-05T04:31:31.974Z,61.30
2023-05-05T04:33:03.872Z,61.20
2023-05-05T04:34:35.702Z,61.40
2023-05-05T04:36:07.895Z,61.40
2023-05-05T04:37:39.678Z,61.30
2023-05-05T04:39:11.686Z,61.30
2023-05-05T04:40:43.607Z,61.40
2023-05-05T04:42:16.080Z,61.50
2023-05-05T04:43:47.784Z,61.50
2023-05-05T04:45:20.377Z,61.50
2023-05-05T04:46:52.594Z,61.60
2023-05-05T04:48:24.991Z,61.60
2023-05-05T04:49:56.946Z,61.60
2023-05-05T04:51:28.680Z,61.60
2023-05-05T04:53:00.484Z,61.60
2023-05-05T04:54:35.533Z,61.70
2023-05-05T04:56:07.346Z,61.70
2023-05-05T04:57:39.152Z,61.80
2023-05-05T04:59:11.108Z,61.80
2023-05-05T05:00:42.802Z,61.90
2023-05-05T05:02:14.606Z,61.80
2023-05-05T05:03:46.569Z,61.90
2023-05-05T05:05:18.661Z,62.00
2023-05-05T05:06:50.486Z,61.80
2023-05-05T05:08:22.363Z,61.80
2023-05-05T05:09:54.098Z,61.80
2023-05-05T05:11:25.966Z,61.80
2023-05-05T05:12:57.655Z,61.80
2023-05-05T05:14:29.906Z,61.90
2023-05-05T05:16:01.765Z,61.80
2023-05-05T05:17:33.569Z,61.80
2023-05-05T05:19:06.141Z,61.90
2023-05-05T05:20:38.089Z,61.80
2023-05-05T05:22:09.805Z,61.80
2023-05-05T05:23:44.197Z,61.80
2023-05-05T05:25:16.012Z,61.70
2023-05-05T05:26:48.080Z,61.90
2023-05-05T05:28:19.803Z,61.70
2023-05-05T05:29:56.235Z,61.70
2023-05-05T05:31:29.047Z,61.60
2023-05-05T05:33:02.094Z,61.50
2023-05-05T05:34:34.215Z,61.50
2023-05-05T05:36:06.119Z,61.50
2023-05-05T05:37:37.904Z,61.50
2023-05-05T05:39:09.681Z,61.40
2023-05-05T05:40:41.380Z,61.60
2023-05-05T05:42:13.068Z,61.60
2023-05-05T05:43:44.893Z,61.60
2023-05-05T05:45:16.798Z,61.60
2023-05-05T05:46:49.191Z,61.60
2023-05-05T05:48:24.610Z,61.60
2023-05-05T05:49:57.237Z,61.60
2023-05-05T05:51:29.036Z,61.60
2023-05-05T05:53:00.747Z,61.50
2023-05-05T05:54:35.408Z,61.70
2023-05-05T05:56:08.255Z,61.80
2023-05-05T05:57:40.530Z,61.80
2023-05-05T05:59:13.810Z,61.80
2023-05-05T06:00:47.677Z,61.80
2023-05-05T06:02:20.725Z,61.90
2023-05-05T06:03:53.019Z,61.90
2023-05-05T06:05:25.544Z,61.60
2023-05-05T06:06:57.985Z,61.80
2023-05-05T06:08:29.765Z,61.70
2023-05-05T06:10:14.551Z,61.70
2023-05-05T06:11:54.294Z,61.70
2023-05-05T06:13:26.154Z,61.60
2023-05-05T06:14:58.055Z,61.60
2023-05-05T06:16:29.848Z,61.70
2023-05-05T06:18:03.479Z,61.70
2023-05-05T06:19:39.200Z,61.80
2023-05-05T06:21:11.161Z,61.80
2023-05-05T06:22:42.856Z,61.80
2023-05-05T06:24:14.720Z,61.70
2023-05-05T06:25:46.608Z,61.70
2023-05-05T06:27:18.296Z,61.70
2023-05-05T06:28:50.449Z,61.70
2023-05-05T06:30:22.143Z,61.50
2023-05-05T06:31:54.109Z,61.60
2023-05-05T06:33:25.920Z,61.60
2023-05-05T06:34:57.561Z,61.50
2023-05-05T06:36:29.339Z,61.60
2023-05-05T06:38:01.077Z,61.70
2023-05-05T06:39:32.830Z,61.70
2023-05-05T06:41:04.899Z,61.60
2023-05-05T06:42:36.695Z,61.70
2023-05-05T06:44:12.421Z,61.60
2023-05-05T06:45:44.106Z,61.60
2023-05-05T06:47:16.049Z,61.60
2023-05-05T06:48:47.695Z,61.50
2023-05-05T06:50:19.816Z,61.50
2023-05-05T06:51:51.475Z,61.70
2023-05-05T06:53:23.117Z,61.70
2023-05-05T06:54:54.763Z,61.60
2023-05-05T06:56:26.452Z,61.60
2023-05-05T06:57:59.207Z,61.60
2023-05-05T06:59:31.016Z,61.70
2023-05-05T07:01:03.892Z,61.60
2023-05-05T07:02:35.796Z,61.50
2023-05-05T07:04:07.514Z,61.60
2023-05-05T07:05:39.223Z,61.50
2023-05-05T07:07:10.937Z,61.50
2023-05-05T07:08:42.604Z,61.50
2023-05-05T07:10:14.368Z,61.50
2023-05-05T07:11:46.605Z,61.50
2023-05-05T07:13:18.386Z,61.50
2023-05-05T07:14:50.170Z,61.60
2023-05-05T07:16:21.845Z,61.60
2023-05-05T07:17:53.549Z,61.70
2023-05-05T07:19:25.199Z,61.80
2023-05-05T07:20:56.833Z,61.70
2023-05-05T07:22:28.577Z,61.70
2023-05-05T07:24:01.028Z,61.90
2023-05-05T07:25:32.858Z,61.90
2023-05-05T07:27:04.608Z,61.90
2023-05-05T07:28:36.311Z,62.00
2023-05-05T07:30:13.172Z,62.00
2023-05-05T07:31:46.319Z,62.10
2023-05-05T07:33:18.559Z,62.10
2023-05-05T07:34:50.311Z,62.10
2023-05-05T07:36:22.156Z,62.10
2023-05-05T07:37:53.826Z,62.10
2023-05-05T07:39:25.857Z,62.10
2023-05-05T07:40:57.602Z,62.10
2023-05-05T07:42:29.286Z,62.20
2023-05-05T07:44:01.274Z,62.20
2023-05-05T07:45:33.078Z,62.30
2023-05-05T07:47:04.853Z,62.30
2023-05-05T07:48:36.937Z,62.40
2023-05-05T07:50:09.032Z,62.50
2023-05-05T07:51:41.083Z,62.50
2023-05-05T07:53:14.835Z,62.50
2023-05-05T07:54:48.430Z,62.50
2023-05-05T07:56:21.794Z,62.60
2023-05-05T07:57:53.665Z,62.70
2023-05-05T07:59:25.475Z,62.80
2023-05-05T08:00:57.267Z,62.90
2023-05-05T08:02:29.432Z,62.90
2023-05-05T08:04:01.269Z,63.20
2023-05-05T08:05:33.049Z,63.20
2023-05-05T08:07:04.707Z,63.20
2023-05-05T08:08:36.797Z,63.40
2023-05-05T08:10:12.515Z,63.40
2023-05-05T08:11:44.208Z,63.40
2023-05-05T08:13:15.984Z,63.50
2023-05-05T08:14:47.753Z,63.60
2023-05-05T08:16:19.613Z,63.80
2023-05-05T08:17:53.188Z,63.70
2023-05-05T08:19:29.341Z,63.80
2023-05-05T08:21:02.195Z,63.80
2023-05-05T08:22:33.914Z,63.90
2023-05-05T08:24:05.828Z,63.90
2023-05-05T08:25:37.520Z,63.90
2023-05-05T08:27:09.431Z,64.00
2023-05-05T08:28:41.210Z,64.10
2023-05-05T08:30:13.212Z,63.90
2023-05-05T08:31:44.982Z,64.10
2023-05-05T08:33:16.797Z,64.30
2023-05-05T08:34:48.551Z,64.30
2023-05-05T08:36:20.377Z,64.30
2023-05-05T08:37:52.131Z,64.30
2023-05-05T08:39:23.822Z,64.40
2023-05-05T08:40:55.968Z,64.60
2023-05-05T08:42:37.207Z,64.90
2023-05-05T08:44:10.894Z,64.50
2023-05-05T08:45:43.209Z,64.70
2023-05-05T08:47:15.865Z,64.80
2023-05-05T08:48:49.395Z,64.90
2023-05-05T08:50:25.882Z,64.80
2023-05-05T08:52:01.322Z,64.80
2023-05-05T08:53:47.828Z,64.80
2023-05-05T08:55:25.280Z,64.70
2023-05-05T08:57:01.710Z,65.00
2023-05-05T08:58:37.434Z,65.00
2023-05-05T09:00:11.209Z,65.20
2023-05-05T09:01:44.063Z,64.90
2023-05-05T09:03:16.580Z,65.20
2023-05-05T09:04:48.502Z,65.10
2023-05-05T09:06:25.578Z,65.00
2023-05-05T09:07:57.651Z,65.10
2023-05-05T09:09:30.255Z,65.00
2023-05-05T09:11:02.500Z,65.10
2023-05-05T09:12:35.287Z,65.10
2023-05-05T09:14:07.164Z,65.10
2023-05-05T09:15:39.027Z,65.20
2023-05-05T09:17:24.722Z,65.10
2023-05-05T09:19:05.901Z,64.90
2023-05-05T09:20:39.879Z,65.10
2023-05-05T09:22:12.109Z,65.20
2023-05-05T09:24:08.381Z,65.20
2023-05-05T09:25:42.816Z,64.80
2023-05-05T09:27:23.649Z,65.10
2023-05-05T09:28:55.323Z,65.00
2023-05-05T09:30:27.209Z,65.10
2023-05-05T09:32:08.128Z,65.10
2023-05-05T09:33:39.889Z,65.10
2023-05-05T09:35:13.172Z,65.00
2023-05-05T09:36:49.416Z,65.00
2023-05-05T09:38:23.627Z,64.90
2023-05-05T09:39:56.293Z,64.90
2023-05-05T09:41:42.304Z,64.90
2023-05-05T09:43:14.278Z,64.80
2023-05-05T09:44:46.089Z,64.80
2023-05-05T09:46:18.097Z,64.80
2023-05-05T09:47:50.472Z,64.70
2023-05-05T09:49:26.758Z,64.80
2023-05-05T09:50:59.268Z,64.70
2023-05-05T09:52:31.882Z,64.70
2023-05-05T09:54:03.641Z,64.60
2023-05-05T09:55:35.954Z,64.60
2023-05-05T09:57:07.981Z,64.70
2023-05-05T09:58:39.698Z,64.70
2023-05-05T10:00:12.410Z,64.60
2023-05-05T10:01:44.257Z,64.50
2023-05-05T10:03:16.383Z,64.50
2023-05-05T10:04:48.080Z,64.40
2023-05-05T10:06:19.862Z,64.50
2023-05-05T10:07:52.002Z,64.50
2023-05-05T10:09:25.004Z,64.40
2023-05-05T10:11:07.010Z,64.40
2023-05-05T10:12:41.053Z,64.40
2023-05-05T10:14:17.518Z,64.40
2023-05-05T10:15:51.855Z,64.40
2023-05-05T10:17:25.083Z,64.50
2023-05-05T10:18:58.670Z,64.50
2023-05-05T10:20:36.609Z,64.50
2023-05-05T10:22:11.722Z,64.50
2023-05-05T10:23:55.004Z,64.40
2023-05-05T10:25:33.334Z,64.50
2023-05-05T10:27:15.665Z,64.50
2023-05-05T10:28:53.580Z,64.40
2023-05-05T10:30:33.584Z,64.40
2023-05-05T10:32:33.383Z,64.40
2023-05-05T10:34:13.688Z,64.40
2023-05-05T10:35:55.435Z,64.40
2023-05-05T10:37:29.090Z,64.20
2023-05-05T10:39:02.869Z,64.30
2023-05-05T10:40:35.649Z,64.20
2023-05-05T10:42:07.838Z,64.20
2023-05-05T10:43:40.203Z,64.20
2023-05-05T10:45:13.649Z,64.30
2023-05-05T10:46:47.415Z,64.10
2023-05-05T10:48:27.517Z,64.10
2023-05-05T10:50:02.285Z,64.00
2023-05-05T10:51:56.812Z,64.00
2023-05-05T10:53:44.243Z,64.00
2023-05-05T10:55:28.473Z,64.00
2023-05-05T10:57:02.606Z,64.00
2023-05-05T10:58:51.303Z,64.10
2023-05-05T11:00:39.572Z,64.10
2023-05-05T11:02:24.842Z,64.00
2023-05-05T11:04:16.286Z,64.10
2023-05-05T11:06:14.726Z,64.00
2023-05-05T11:07:49.127Z,64.00
2023-05-05T11:09:27.997Z,64.10
2023-05-05T11:11:00.358Z,64.10
2023-05-05T11:12:33.792Z,64.10
2023-05-05T11:14:24.602Z,64.10
2023-05-05T11:15:57.756Z,64.00
2023-05-05T11:17:45.721Z,64.10
2023-05-05T11:19:44.598Z,64.00
2023-05-05T11:21:17.500Z,64.10
2023-05-05T11:23:05.199Z,64.10
2023-05-05T11:24:37.896Z,64.10
2023-05-05T11:26:10.232Z,64.30
2023-05-05T11:28:07.834Z,64.20
2023-05-05T11:30:08.459Z,64.30
2023-05-05T11:31:40.792Z,64.20
2023-05-05T11:33:37.320Z,64.40
2023-05-05T11:35:09.179Z,64.40
2023-05-05T11:36:41.090Z,64.60
2023-05-05T11:38:14.612Z,64.60
2023-05-05T11:40:07.020Z,64.60
2023-05-05T11:41:41.933Z,64.80
2023-05-05T11:43:18.272Z,64.70
2023-05-05T11:44:51.026Z,64.70
2023-05-05T11:46:22.978Z,64.80
2023-05-05T11:48:24.004Z,64.90
2023-05-05T11:49:57.306Z,64.80
2023-05-05T11:51:30.485Z,64.90
2023-05-05T11:53:03.457Z,65.00
2023-05-05T11:54:37.838Z,65.10
2023-05-05T11:56:11.005Z,65.00
2023-05-05T11:57:42.687Z,65.00
2023-05-05T11:59:14.470Z,65.20
2023-05-05T12:00:46.879Z,65.20
2023-05-05T12:02:20.320Z,65.20
2023-05-05T12:03:52.482Z,65.20
2023-05-05T12:05:24.362Z,65.10
2023-05-05T12:06:56.923Z,65.10
2023-05-05T12:08:28.848Z,65.10
2023-05-05T12:10:01.116Z,65.10
2023-05-05T12:11:32.755Z,65.00
2023-05-05T12:13:04.520Z,65.00
2023-05-05T12:14:36.251Z,65.00
2023-05-05T12:16:11.402Z,64.90
2023-05-05T12:17:45.940Z,65.00
2023-05-05T12:19:17.787Z,64.90
2023-05-05T12:20:49.540Z,64.90
2023-05-05T12:22:26.540Z,64.90
2023-05-05T12:23:59.169Z,64.80
2023-05-05T12:25:38.123Z,65.00
2023-05-05T12:27:11.619Z,64.90
2023-05-05T12:28:47.352Z,64.90
2023-05-05T12:30:19.945Z,64.90
2023-05-05T12:31:52.145Z,64.90
2023-05-05T12:33:24.020Z,64.80
2023-05-05T12:34:57.278Z,64.90
2023-05-05T12:36:30.593Z,64.90
2023-05-05T12:38:03.029Z,64.90
2023-05-05T12:39:36.376Z,64.90
2023-05-05T12:41:08.208Z,64.90
2023-05-05T12:42:40.011Z,64.90
2023-05-05T12:44:11.727Z,64.90
2023-05-05T12:45:43.389Z,64.90
2023-05-05T12:47:29.403Z,64.80
2023-05-05T12:49:04.933Z,64.90
2023-05-05T12:50:36.676Z,64.90
2023-05-05T12:52:09.978Z,64.90
2023-05-05T12:53:42.116Z,64.90
2023-05-05T12:55:13.857Z,64.80
2023-05-05T12:56:47.081Z,64.90
2023-05-05T12:58:18.689Z,64.80
2023-05-05T12:59:51.631Z,64.70
2023-05-05T13:01:23.343Z,64.70
2023-05-05T13:02:56.047Z,64.60
2023-05-05T13:04:28.938Z,64.80
2023-05-05T13:06:00.566Z,64.60
2023-05-05T13:07:32.351Z,64.70
2023-05-05T13:09:05.316Z,64.60
2023-05-05T13:10:37.565Z,64.40
2023-05-05T13:12:11.842Z,64.30
2023-05-05T13:13:43.525Z,64.30
2023-05-05T13:15:15.324Z,64.10
2023-05-05T13:16:47.111Z,64.10
2023-05-05T13:18:18.772Z,64.10
2023-05-05T13:19:50.905Z,64.00
2023-05-05T13:21:22.566Z,64.00
2023-05-05T13:22:54.234Z,64.00
2023-05-05T13:24:42.395Z,63.80
2023-05-05T13:26:18.264Z,63.90
2023-05-05T13:27:49.911Z,63.80
2023-05-05T13:29:21.643Z,63.80
2023-05-05T13:30:53.516Z,64.00
2023-05-05T13:32:25.417Z,63.90
2023-05-05T13:33:57.097Z,63.90
2023-05-05T13:35:28.814Z,63.80
2023-05-05T13:37:00.647Z,63.70
2023-05-05T13:38:33.047Z,63.70
2023-05-05T13:40:05.285Z,63.60
2023-05-05T13:41:36.935Z,63.40
2023-05-05T13:43:08.674Z,63.50
2023-05-05T13:44:40.407Z,63.40
2023-05-05T13:46:20.067Z,63.30
2023-05-05T13:47:53.196Z,63.40
2023-05-05T13:49:25.545Z,63.40
2023-05-05T13:50:57.404Z,63.40
2023-05-05T13:52:31.051Z,63.40
2023-05-05T13:54:04.169Z,63.20
2023-05-05T13:55:35.863Z,62.80
2023-05-05T13:57:07.923Z,62.70
2023-05-05T13:58:39.637Z,62.40
2023-05-05T14:00:11.829Z,62.40
2023-05-05T14:01:43.573Z,62.40
2023-05-05T14:03:15.311Z,62.70
2023-05-05T14:04:47.067Z,63.20
2023-05-05T14:06:18.742Z,63.90
2023-05-05T14:07:50.357Z,64.60
2023-05-05T14:09:22.169Z,64.90
2023-05-05T14:10:53.811Z,65.60
2023-05-05T14:12:25.460Z,66.10
2023-05-05T14:13:57.592Z,66.40
2023-05-05T14:15:29.927Z,67.30
2023-05-05T14:17:01.714Z,67.60
2023-05-05T14:18:33.406Z,67.80
2023-05-05T14:20:05.842Z,68.10
2023-05-05T14:21:37.700Z,68.50
2023-05-05T14:23:09.347Z,68.80
2023-05-05T14:24:41.174Z,69.10
2023-05-05T14:26:12.888Z,69.50
2023-05-05T14:27:44.658Z,69.60
2023-05-05T14:29:16.728Z,69.90
2023-05-05T14:30:48.429Z,70.10
2023-05-05T14:32:20.499Z,70.20
2023-05-05T14:33:53.241Z,70.50
2023-05-05T14:35:24.939Z,70.70
2023-05-05T14:36:57.044Z,71.10
2023-05-05T14:38:28.801Z,71.10
2023-05-05T14:40:00.520Z,71.30
2023-05-05T14:41:32.552Z,71.30
2023-05-05T14:43:04.392Z,71.40
2023-05-05T14:44:36.043Z,71.70
2023-05-05T14:46:07.832Z,71.70
2023-05-05T14:47:39.607Z,72.00
2023-05-05T14:49:11.285Z,72.00
2023-05-05T14:50:42.989Z,72.00
2023-05-05T14:52:14.773Z,72.30
2023-05-05T14:53:46.934Z,72.20
2023-05-05T14:55:18.732Z,72.40
2023-05-05T14:56:50.432Z,72.20
2023-05-05T14:58:24.408Z,72.30
2023-05-05T14:59:56.030Z,72.20
2023-05-05T15:01:27.942Z,72.30
2023-05-05T15:02:59.745Z,72.50
2023-05-05T15:04:31.418Z,72.60
2023-05-05T15:06:03.140Z,73.00
2023-05-05T15:07:34.812Z,73.10
2023-05-05T15:09:06.527Z,73.20
2023-05-05T15:10:38.237Z,73.30
2023-05-05T15:12:09.949Z,73.70
2023-05-05T15:13:41.614Z,73.90
2023-05-05T15:15:13.342Z,74.20
2023-05-05T15:16:46.624Z,74.50
2023-05-05T15:18:18.474Z,74.60
2023-05-05T15:19:50.256Z,74.90
2023-05-05T15:21:21.910Z,75.20
2023-05-05T15:22:54.873Z,75.20
2023-05-05T15:24:26.557Z,75.30
2023-05-05T15:25:58.210Z,75.40
2023-05-05T15:27:31.519Z,75.80
2023-05-05T15:29:03.163Z,75.60
2023-05-05T15:30:34.887Z,75.60
2023-05-05T15:32:06.611Z,75.70
2023-05-05T15:33:38.683Z,75.90
2023-05-05T15:35:10.609Z,76.00
2023-05-05T15:36:42.388Z,76.20
2023-05-05T15:38:14.582Z,76.30
2023-05-05T15:39:46.311Z,76.40
2023-05-05T15:41:18.000Z,76.40
2023-05-05T15:42:49.989Z,76.40
2023-05-05T15:44:21.777Z,76.40
2023-05-05T15:45:54.022Z,76.30
2023-05-05T15:47:26.711Z,76.60
2023-05-05T15:48:58.490Z,76.60
2023-05-05T15:50:33.408Z,76.70
2023-05-05T15:52:05.516Z,76.90
2023-05-05T15:53:37.180Z,77.10
2023-05-05T15:55:10.003Z,77.10
2023-05-05T15:56:41.829Z,77.20
2023-05-05T15:58:14.012Z,77.20
2023-05-05T15:59:46.342Z,77.00
2023-05-05T16:01:18.378Z,77.10
2023-05-05T16:02:50.261Z,77.00
2023-05-05T16:04:22.150Z,77.10
2023-05-05T16:05:53.820Z,77.30
2023-05-05T16:07:26.926Z,77.40
2023-05-05T16:08:59.092Z,77.30
2023-05-05T16:10:32.183Z,77.20
2023-05-05T16:12:04.418Z,77.20
2023-05-05T16:13:36.300Z,77.20
2023-05-05T16:15:09.921Z,77.40
2023-05-05T16:16:42.710Z,77.50
2023-05-05T16:18:14.575Z,77.50
2023-05-05T16:19:46.240Z,77.40
2023-05-05T16:21:17.902Z,77.60
2023-05-05T16:22:49.746Z,77.50
2023-05-05T16:24:21.613Z,77.60
2023-05-05T16:25:53.251Z,77.60
2023-05-05T16:27:24.916Z,77.60
2023-05-05T16:28:56.831Z,77.60
2023-05-05T16:30:29.227Z,77.60
2023-05-05T16:32:01.117Z,77.50
2023-05-05T16:33:33.087Z,77.60
2023-05-05T16:35:07.146Z,77.60
2023-05-05T16:36:39.076Z,77.70
2023-05-05T16:38:11.349Z,77.70
2023-05-05T16:39:43.023Z,77.60
2023-05-05T16:41:14.770Z,77.90
2023-05-05T16:42:46.440Z,77.90
2023-05-05T16:44:18.092Z,77.80
2023-05-05T16:45:49.752Z,78.10
2023-05-05T16:47:21.557Z,78.30
2023-05-05T16:48:53.276Z,78.50
2023-05-05T16:50:25.000Z,78.40
2023-05-05T16:51:57.015Z,78.60
2023-05-05T16:53:28.975Z,78.60
2023-05-05T16:55:00.800Z,78.50
2023-05-05T16:56:32.437Z,78.60
2023-05-05T16:58:04.500Z,78.60
2023-05-05T16:59:36.203Z,78.60
2023-05-05T17:01:07.890Z,78.90
2023-05-05T17:02:39.847Z,79.10
2023-05-05T17:04:11.797Z,79.20
2023-05-05T17:05:49.844Z,79.40
2023-05-05T17:07:21.952Z,79.80
2023-05-05T17:08:53.599Z,80.10
2023-05-05T17:10:25.246Z,80.10
2023-05-05T17:11:57.526Z,80.10
2023-05-05T17:13:29.212Z,80.10
2023-05-05T17:15:00.849Z,80.20
2023-05-05T17:16:32.798Z,80.30
2023-05-05T17:18:06.378Z,80.40
2023-05-05T17:19:38.526Z,80.50
2023-05-05T17:21:10.393Z,80.50
2023-05-05T17:22:42.137Z,80.70
2023-05-05T17:24:13.803Z,80.90
2023-05-05T17:25:45.453Z,80.80
2023-05-05T17:27:17.160Z,80.80
2023-05-05T17:28:48.775Z,80.80
2023-05-05T17:30:21.022Z,80.80
2023-05-05T17:31:54.027Z,80.90
2023-05-05T17:33:26.019Z,80.90
2023-05-05T17:34:57.645Z,80.90
2023-05-05T17:36:29.318Z,80.90
2023-05-05T17:38:00.940Z,81.20
2023-05-05T17:39:33.043Z,81.10
2023-05-05T17:41:04.685Z,81.00
2023-05-05T17:42:36.394Z,81.10
2023-05-05T17:44:08.005Z,81.10
2023-05-05T17:45:39.704Z,81.10
2023-05-05T17:47:11.324Z,81.10
2023-05-05T17:48:43.081Z,81.30
2023-05-05T17:50:14.793Z,81.30
2023-05-05T17:51:46.531Z,81.20
2023-05-05T17:53:18.188Z,81.20
2023-05-05T17:54:50.522Z,81.40
2023-05-05T17:56:22.194Z,81.50
2023-05-05T17:57:55.683Z,81.50
2023-05-05T17:59:27.368Z,81.40
2023-05-05T18:00:59.126Z,81.40
2023-05-05T18:02:30.817Z,81.40
2023-05-05T18:04:02.523Z,81.40
2023-05-05T18:05:35.004Z,81.50
2023-05-05T18:07:06.895Z,81.80
2023-05-05T18:08:38.614Z,81.70
2023-05-05T18:10:13.016Z,81.90
2023-05-05T18:11:44.689Z,81.80
2023-05-05T18:13:16.375Z,81.90
2023-05-05T18:14:48.114Z,81.90
2023-05-05T18:16:20.102Z,82.00
2023-05-05T18:17:51.855Z,82.00
2023-05-05T18:19:23.853Z,81.90
2023-05-05T18:20:55.542Z,81.80
2023-05-05T18:22:30.825Z,81.80
2023-05-05T18:24:15.752Z,81.80
2023-05-05T18:25:51.641Z,81.70
2023-05-05T18:27:23.362Z,81.60
2023-05-05T18:28:55.012Z,81.70
2023-05-05T18:30:26.786Z,81.70
2023-05-05T18:31:58.496Z,81.80
2023-05-05T18:33:30.284Z,81.70
2023-05-05T18:35:01.972Z,81.80
2023-05-05T18:36:33.648Z,81.70
2023-05-05T18:38:05.718Z,81.50
2023-05-05T18:39:37.948Z,81.50
2023-05-05T18:41:09.664Z,81.50
2023-05-05T18:42:41.761Z,81.50
2023-05-05T18:44:13.475Z,81.50
2023-05-05T18:45:45.210Z,81.50
2023-05-05T18:47:17.205Z,81.60
2023-05-05T18:48:48.824Z,81.80
2023-05-05T18:50:20.500Z,81.80
2023-05-05T18:51:53.480Z,81.90
2023-05-05T18:53:25.677Z,81.90
2023-05-05T18:54:57.366Z,81.90
2023-05-05T18:56:29.366Z,81.90
2023-05-05T18:58:01.001Z,82.00
2023-05-05T18:59:32.629Z,82.00
2023-05-05T19:01:04.378Z,82.10
2023-05-05T19:02:36.100Z,82.20
2023-05-05T19:04:18.799Z,82.30
2023-05-05T19:05:58.646Z,82.30
2023-05-05T19:07:35.625Z,82.30
2023-05-05T19:09:07.701Z,82.20
2023-05-05T19:10:39.298Z,82.30
2023-05-05T19:12:10.978Z,82.40
2023-05-05T19:13:42.953Z,82.40
2023-05-05T19:15:14.693Z,82.40
2023-05-05T19:16:46.723Z,82.50
2023-05-05T19:18:18.418Z,82.50
2023-05-05T19:19:50.492Z,82.50
2023-05-05T19:21:22.173Z,82.50
2023-05-05T19:22:53.808Z,82.50
2023-05-05T19:24:25.502Z,82.40
2023-05-05T19:25:57.159Z,82.50
2023-05-05T19:27:28.893Z,82.50
2023-05-05T19:29:00.814Z,82.50
2023-05-05T19:30:32.534Z,82.50
2023-05-05T19:32:04.453Z,82.40
2023-05-05T19:33:36.461Z,82.50
2023-05-05T19:35:10.269Z,82.50
2023-05-05T19:36:42.402Z,82.60
2023-05-05T19:38:14.177Z,82.40
2023-05-05T19:39:45.945Z,82.20
2023-05-05T19:41:18.060Z,82.20
2023-05-05T19:42:49.856Z,82.20
2023-05-05T19:44:22.639Z,82.20
2023-05-05T19:45:54.330Z,82.10
2023-05-05T19:47:26.083Z,82.10
2023-05-05T19:48:57.744Z,82.00
2023-05-05T19:50:30.517Z,82.00
2023-05-05T19:52:02.830Z,81.90
2023-05-05T19:53:35.078Z,81.80
2023-05-05T19:55:07.757Z,81.90
2023-05-05T19:56:40.241Z,82.00
2023-05-05T19:58:12.013Z,82.20
2023-05-05T19:59:43.848Z,82.40
2023-05-05T20:01:15.537Z,82.50
2023-05-05T20:02:48.981Z,82.60
2023-05-05T20:04:21.006Z,82.50
2023-05-05T20:05:52.713Z,82.50
2023-05-05T20:07:24.314Z,82.50
2023-05-05T20:08:56.047Z,82.40
2023-05-05T20:10:27.749Z,82.30
2023-05-05T20:11:59.596Z,82.40